createdAt,value
2023-04-18T00:00:43.338Z,4.38
2023-04-18T00:03:10.397Z,4.55
2023-04-18T00:05:38.073Z,4.03
2023-04-18T00:08:05.563Z,3.47
2023-04-18T00:10:32.678Z,3.70
2023-04-18T00:13:00.604Z,3.80
2023-04-18T00:15:29.367Z,3.67
2023-04-18T00:18:00.970Z,3.92
2023-04-18T00:20:27.764Z,3.53
2023-04-18T00:22:55.120Z,3.00
2023-04-18T00:25:21.968Z,2.72
2023-04-18T00:27:48.705Z,3.05
2023-04-18T00:30:15.593Z,3.60
2023-04-18T00:32:42.425Z,4.32
2023-04-18T00:35:09.269Z,2.85
2023-04-18T00:37:36.076Z,3.53
2023-04-18T00:40:02.901Z,3.15
2023-04-18T00:42:29.669Z,2.33
2023-04-18T00:44:56.497Z,2.40
2023-04-18T00:47:23.313Z,2.60
2023-04-18T00:49:50.243Z,2.05
2023-04-18T00:52:17.865Z,2.28
2023-04-18T00:54:44.845Z,2.45
2023-04-18T00:57:12.243Z,1.95
2023-04-18T00:59:39.263Z,2.10
2023-04-18T01:02:07.732Z,1.73
2023-04-18T01:04:34.649Z,1.95
2023-04-18T01:07:02.315Z,2.40
2023-04-18T01:09:29.382Z,2.20
2023-04-18T01:11:56.303Z,3.00
2023-04-18T01:14:23.532Z,2.80
2023-04-18T01:16:50.400Z,3.30
2023-04-18T01:19:19.055Z,4.00
2023-04-18T01:21:46.128Z,3.35
2023-04-18T01:24:17.158Z,3.92
2023-04-18T01:26:44.911Z,3.70
2023-04-18T01:29:11.747Z,3.95
2023-04-18T01:31:39.082Z,4.18
2023-04-18T01:34:07.413Z,5.07
2023-04-18T01:36:35.122Z,4.85
2023-04-18T01:39:02.468Z,5.78
2023-04-18T01:41:32.716Z,6.28
2023-04-18T01:43:59.940Z,6.13
2023-04-18T01:46:27.607Z,6.88
2023-04-18T01:48:54.495Z,7.15
2023-04-18T01:51:21.704Z,5.63
2023-04-18T01:53:48.648Z,6.38
2023-04-18T01:56:15.496Z,5.80
2023-04-18T01:58:42.322Z,6.13
2023-04-18T02:01:09.215Z,6.97
2023-04-18T02:03:36.274Z,6.18
2023-04-18T02:06:04.100Z,6.50
2023-04-18T02:08:33.112Z,6.93
2023-04-18T02:11:01.520Z,6.18
2023-04-18T02:13:28.940Z,6.28
2023-04-18T02:15:57.552Z,6.53
2023-04-18T02:18:25.638Z,6.10
2023-04-18T02:20:52.480Z,6.93
2023-04-18T02:23:21.695Z,5.68
2023-04-18T02:25:48.571Z,6.28
2023-04-18T02:28:17.446Z,7.32
2023-04-18T02:30:44.651Z,7.25
2023-04-18T02:33:11.431Z,8.23
2023-04-18T02:35:38.561Z,7.05
2023-04-18T02:38:05.462Z,7.57
2023-04-18T02:40:32.278Z,7.00
2023-04-18T02:42:59.583Z,7.45
2023-04-18T02:45:26.553Z,7.30
2023-04-18T02:47:56.664Z,7.22
2023-04-18T02:50:24.822Z,7.28
2023-04-18T02:52:53.220Z,6.90
2023-04-18T02:55:22.137Z,7.38
2023-04-18T02:57:48.980Z,8.23
2023-04-18T03:00:41.784Z,8.55
2023-04-18T03:03:40.665Z,9.38
2023-04-18T03:06:33.387Z,8.57
2023-04-18T03:09:03.047Z,9.52
2023-04-18T03:11:31.722Z,9.82
2023-04-18T03:13:59.011Z,9.32
2023-04-18T03:16:31.450Z,9.55
2023-04-18T03:18:58.348Z,9.20
2023-04-18T03:21:27.697Z,9.05
2023-04-18T03:23:54.437Z,9.25
2023-04-18T03:26:22.781Z,9.63
2023-04-18T03:28:51.392Z,9.63
2023-04-18T03:31:18.447Z,9.70
2023-04-18T03:33:46.217Z,11.00
2023-04-18T03:36:15.683Z,10.10
2023-04-18T03:38:42.969Z,9.85
2023-04-18T03:41:11.115Z,10.43
2023-04-18T03:43:38.740Z,10.02
2023-04-18T03:46:05.706Z,10.50
2023-04-18T03:48:35.912Z,11.43
2023-04-18T03:51:08.336Z,11.90
2023-04-18T03:53:36.432Z,12.60
2023-04-18T03:56:03.641Z,12.05
2023-04-18T03:58:48.817Z,12.30
2023-04-18T04:01:16.833Z,10.82
2023-04-18T04:03:43.813Z,11.65
2023-04-18T04:06:11.019Z,10.88
2023-04-18T04:08:38.662Z,11.57
2023-04-18T04:11:05.989Z,11.30
2023-04-18T04:13:33.369Z,11.13
2023-04-18T04:16:00.424Z,9.88
2023-04-18T04:18:31.203Z,9.65
2023-04-18T04:21:00.710Z,10.15
2023-04-18T04:23:46.358Z,9.60
2023-04-18T04:26:23.617Z,9.82
2023-04-18T04:29:03.874Z,8.75
2023-04-18T04:31:33.404Z,9.57
2023-04-18T04:34:00.908Z,9.25
2023-04-18T04:36:28.846Z,8.98
2023-04-18T04:38:58.122Z,9.30
2023-04-18T04:41:37.746Z,10.15
2023-04-18T04:44:05.985Z,9.73
2023-04-18T04:46:34.543Z,9.68
2023-04-18T04:49:06.129Z,9.90
2023-04-18T04:51:33.273Z,11.13
2023-04-18T04:54:00.127Z,8.65
2023-04-18T04:56:26.934Z,10.98
2023-04-18T04:58:54.353Z,9.80
2023-04-18T05:01:25.139Z,11.15
2023-04-18T05:03:52.837Z,10.00
2023-04-18T05:06:21.083Z,11.90
2023-04-18T05:08:48.249Z,11.35
2023-04-18T05:11:15.325Z,10.07
2023-04-18T05:13:42.595Z,11.40
2023-04-18T05:16:09.686Z,9.70
2023-04-18T05:18:39.522Z,12.13
2023-04-18T05:21:07.292Z,10.80
2023-04-18T05:23:37.415Z,11.55
2023-04-18T05:26:08.031Z,11.40
2023-04-18T05:28:35.085Z,11.05
2023-04-18T05:31:02.441Z,10.27
2023-04-18T05:33:29.528Z,10.20
2023-04-18T05:35:56.804Z,10.18
2023-04-18T05:38:23.888Z,10.88
2023-04-18T05:40:56.297Z,10.13
2023-04-18T05:43:23.524Z,10.00
2023-04-18T05:45:52.744Z,9.30
2023-04-18T05:48:19.881Z,10.82
2023-04-18T05:50:46.801Z,10.27
2023-04-18T05:53:13.770Z,12.02
2023-04-18T05:55:43.162Z,10.23
2023-04-18T05:58:10.565Z,10.88
2023-04-18T06:00:38.119Z,12.52
2023-04-18T06:03:07.283Z,11.73
2023-04-18T06:05:37.403Z,12.13
2023-04-18T06:08:04.412Z,12.18
2023-04-18T06:10:31.388Z,10.27
2023-04-18T06:12:58.400Z,12.23
2023-04-18T06:15:25.309Z,11.30
2023-04-18T06:17:52.464Z,11.50
2023-04-18T06:20:19.319Z,10.68
2023-04-18T06:22:46.630Z,9.95
2023-04-18T06:25:13.629Z,9.57
2023-04-18T06:27:40.659Z,11.57
2023-04-18T06:30:08.649Z,10.75
2023-04-18T06:32:35.858Z,9.77
2023-04-18T06:35:02.805Z,11.77
2023-04-18T06:37:29.882Z,10.20
2023-04-18T06:39:56.806Z,10.63
2023-04-18T06:42:23.851Z,10.00
2023-04-18T06:44:50.869Z,9.50
2023-04-18T06:47:17.728Z,9.45
2023-04-18T06:49:44.630Z,9.75
2023-04-18T06:52:12.010Z,9.77
2023-04-18T06:54:39.009Z,11.73
2023-04-18T06:57:06.326Z,10.18
2023-04-18T06:59:33.212Z,18.92
2023-04-18T07:02:03.664Z,10.98
2023-04-18T07:04:30.751Z,10.13
2023-04-18T07:06:57.632Z,10.43
2023-04-18T07:09:24.606Z,11.05
2023-04-18T07:11:52.772Z,11.48
2023-04-18T07:14:23.676Z,9.68
2023-04-18T07:16:50.984Z,11.10
2023-04-18T07:19:18.191Z,10.80
2023-04-18T07:21:46.248Z,9.63
2023-04-18T07:24:13.342Z,10.15
2023-04-18T07:26:41.009Z,9.73
2023-04-18T07:29:08.014Z,12.95
2023-04-18T07:31:35.098Z,10.75
2023-04-18T07:34:02.125Z,9.65
2023-04-18T07:36:29.074Z,8.25
2023-04-18T07:38:56.203Z,8.02
2023-04-18T07:41:23.058Z,10.48
2023-04-18T07:43:50.010Z,6.85
2023-04-18T07:46:17.390Z,7.38
2023-04-18T07:48:44.533Z,9.48
2023-04-18T07:51:11.665Z,10.52
2023-04-18T07:53:39.763Z,7.72
2023-04-18T07:56:07.205Z,7.25
2023-04-18T07:58:34.891Z,7.78
2023-04-18T08:01:01.894Z,7.75
2023-04-18T08:03:29.933Z,9.27
2023-04-18T08:05:57.067Z,10.18
2023-04-18T08:08:24.123Z,7.88
2023-04-18T08:10:51.125Z,8.18
2023-04-18T08:13:18.394Z,7.90
2023-04-18T08:15:46.367Z,8.88
2023-04-18T08:18:13.537Z,7.20
2023-04-18T08:20:41.242Z,9.35
2023-04-18T08:23:12.060Z,9.20
2023-04-18T08:28:06.517Z,7.03
2023-04-18T08:30:33.490Z,7.32
2023-04-18T08:33:00.708Z,7.22
2023-04-18T08:35:27.802Z,6.78
2023-04-18T08:37:54.589Z,7.78
2023-04-18T08:40:21.638Z,8.25
2023-04-18T08:42:49.060Z,6.47
2023-04-18T08:45:16.053Z,5.72
2023-04-18T08:47:43.600Z,6.78
2023-04-18T08:50:10.499Z,5.68
2023-04-18T08:52:39.017Z,7.43
2023-04-18T08:55:06.436Z,10.68
2023-04-18T08:57:36.089Z,7.45
2023-04-18T09:00:11.596Z,4.80
2023-04-18T09:02:42.919Z,17.63
2023-04-18T09:05:28.428Z,5.88
2023-04-18T09:07:56.905Z,8.40
2023-04-18T09:10:33.059Z,7.13
2023-04-18T09:13:04.122Z,6.05
2023-04-18T09:15:31.210Z,3.85
2023-04-18T09:17:59.362Z,4.32
2023-04-18T09:20:38.300Z,4.28
2023-04-18T09:23:14.950Z,8.35
2023-04-18T09:25:47.026Z,4.97
2023-04-18T09:28:28.253Z,5.28
2023-04-18T09:33:28.404Z,7.22
2023-04-18T09:35:55.838Z,4.15
2023-04-18T09:38:38.604Z,5.05
2023-04-18T09:41:13.650Z,4.22
2023-04-18T09:43:40.730Z,4.75
2023-04-18T09:46:11.642Z,3.90
2023-04-18T09:48:40.288Z,3.50
2023-04-18T09:51:08.415Z,4.38
2023-04-18T09:53:38.402Z,4.75
2023-04-18T09:56:06.521Z,3.80
2023-04-18T09:58:34.702Z,6.18
2023-04-18T10:01:05.796Z,3.45
2023-04-18T10:03:38.285Z,2.80
2023-04-18T10:06:06.049Z,2.28
2023-04-18T10:08:33.346Z,2.28
2023-04-18T10:11:00.473Z,2.85
2023-04-18T10:13:28.168Z,1.60
2023-04-18T10:15:55.578Z,1.55
2023-04-18T10:18:25.571Z,0.52
2023-04-18T10:21:05.708Z,0.60
2023-04-18T10:23:41.394Z,1.25
2023-04-18T10:26:09.009Z,1.83
2023-04-18T10:28:55.318Z,2.13
2023-04-18T10:31:24.405Z,0.90
2023-04-18T10:34:17.862Z,3.45
2023-04-18T10:37:02.763Z,1.90
2023-04-18T10:39:30.185Z,2.42
2023-04-18T10:41:57.102Z,2.38
2023-04-18T10:44:24.330Z,1.60
2023-04-18T10:47:11.566Z,1.75
2023-04-18T10:49:39.855Z,5.63
2023-04-18T10:52:07.074Z,2.80
2023-04-18T10:54:55.997Z,1.27
2023-04-18T10:57:25.174Z,1.20
2023-04-18T10:59:52.563Z,1.10
2023-04-18T11:02:30.377Z,1.45
2023-04-18T11:05:04.881Z,1.25
2023-04-18T11:07:51.029Z,1.73
2023-04-18T11:10:23.262Z,1.33
2023-04-18T11:12:51.224Z,1.98
2023-04-18T11:15:22.234Z,1.15
2023-04-18T11:17:57.823Z,1.55
2023-04-18T11:20:24.895Z,1.70
2023-04-18T11:22:56.599Z,2.25
2023-04-18T11:25:31.095Z,2.20
2023-04-18T11:28:01.799Z,1.00
2023-04-18T11:30:31.512Z,4.32
2023-04-18T11:32:58.493Z,0.95
2023-04-18T11:35:25.485Z,1.10
2023-04-18T11:37:56.249Z,1.77
2023-04-18T11:40:26.253Z,1.30
2023-04-18T11:42:54.361Z,1.50
2023-04-18T11:45:21.306Z,1.10
2023-04-18T11:47:48.584Z,0.93
2023-04-18T11:50:15.511Z,6.53
2023-04-18T11:52:42.762Z,3.30
2023-04-18T11:55:14.565Z,2.10
2023-04-18T11:57:42.172Z,1.10
2023-04-18T12:00:11.199Z,1.63
2023-04-18T12:02:47.872Z,0.90
2023-04-18T12:05:25.435Z,1.50
2023-04-18T12:07:52.722Z,1.83
2023-04-18T12:10:27.825Z,1.42
2023-04-18T12:12:55.685Z,1.33
2023-04-18T12:15:25.597Z,1.88
2023-04-18T12:17:52.544Z,1.02
2023-04-18T12:20:20.614Z,1.33
2023-04-18T12:22:51.380Z,1.73
2023-04-18T12:25:24.385Z,2.38
2023-04-18T12:28:00.646Z,1.30
2023-04-18T12:30:29.739Z,7.10
2023-04-18T12:33:01.139Z,2.70
2023-04-18T12:35:28.505Z,1.88
2023-04-18T12:37:56.530Z,1.30
2023-04-18T12:40:23.848Z,2.45
2023-04-18T12:42:51.696Z,1.50
2023-04-18T12:45:19.800Z,2.15
2023-04-18T12:47:47.358Z,1.10
2023-04-18T12:50:24.201Z,1.15
2023-04-18T12:52:54.953Z,1.30
2023-04-18T12:55:25.085Z,1.02
2023-04-18T12:57:54.554Z,3.17
2023-04-18T13:00:23.705Z,1.52
2023-04-18T13:02:51.027Z,4.85
2023-04-18T13:05:18.779Z,1.95
2023-04-18T13:07:47.603Z,1.42
2023-04-18T13:10:18.580Z,1.55
2023-04-18T13:15:12.518Z,1.90
2023-04-18T13:17:39.744Z,1.38
2023-04-18T13:20:07.083Z,7.22
2023-04-18T13:22:34.401Z,2.58
2023-04-18T13:25:01.213Z,3.78
2023-04-18T13:27:28.024Z,1.20
2023-04-18T13:29:55.657Z,1.95
2023-04-18T13:32:22.966Z,2.22
2023-04-18T13:34:50.068Z,1.00
2023-04-18T13:37:17.146Z,0.75
2023-04-18T13:39:44.045Z,1.30
2023-04-18T13:42:11.050Z,2.13
2023-04-18T13:44:38.163Z,1.85
2023-04-18T13:47:06.056Z,1.50
2023-04-18T13:49:33.630Z,1.13
2023-04-18T13:52:01.144Z,1.38
2023-04-18T13:54:28.661Z,1.42
2023-04-18T13:56:57.420Z,1.27
2023-04-18T13:59:24.942Z,0.82
2023-04-18T14:01:52.882Z,0.57
2023-04-18T14:04:23.594Z,0.95
2023-04-18T14:06:50.869Z,2.28
2023-04-18T14:09:18.287Z,0.90
2023-04-18T14:11:45.188Z,0.60
2023-04-18T14:14:11.970Z,1.13
2023-04-18T14:16:38.984Z,1.25
2023-04-18T14:19:05.792Z,0.52
2023-04-18T14:21:32.689Z,1.00
2023-04-18T14:23:59.592Z,0.98
2023-04-18T14:26:26.576Z,0.70
2023-04-18T14:28:53.430Z,4.18
2023-04-18T14:31:20.289Z,0.93
2023-04-18T14:33:47.121Z,1.42
2023-04-18T14:36:15.349Z,1.70
2023-04-18T14:38:42.446Z,1.67
2023-04-18T14:41:09.316Z,1.02
2023-04-18T14:43:36.233Z,1.25
2023-04-18T14:46:03.224Z,1.05
2023-04-18T14:48:30.174Z,1.80
2023-04-18T14:51:02.631Z,0.52
2023-04-18T14:53:30.843Z,0.73
2023-04-18T14:55:57.954Z,1.15
2023-04-18T14:58:24.922Z,0.90
2023-04-18T15:00:51.701Z,1.42
2023-04-18T15:03:18.708Z,0.57
2023-04-18T15:05:48.672Z,0.30
2023-04-18T15:08:16.521Z,0.70
2023-04-18T15:10:43.383Z,0.82
2023-04-18T15:13:11.220Z,1.05
2023-04-18T15:15:39.827Z,0.77
2023-04-18T15:18:08.555Z,0.80
2023-04-18T15:20:39.630Z,0.82
2023-04-18T15:23:06.784Z,1.13
2023-04-18T15:25:35.375Z,0.80
2023-04-18T15:28:02.383Z,1.15
2023-04-18T15:30:29.427Z,0.80
2023-04-18T15:32:56.305Z,0.60
2023-04-18T15:35:23.420Z,0.75
2023-04-18T15:37:51.579Z,0.80
2023-04-18T15:40:18.864Z,0.73
2023-04-18T15:42:46.046Z,0.70
2023-04-18T15:45:13.168Z,1.83
2023-04-18T15:47:40.743Z,0.93
2023-04-18T15:50:08.418Z,1.05
2023-04-18T15:52:35.323Z,1.85
2023-04-18T15:55:02.389Z,1.65
2023-04-18T15:57:32.174Z,1.67
2023-04-18T15:59:59.852Z,1.10
2023-04-18T16:02:26.958Z,1.10
2023-04-18T16:04:53.957Z,0.80
2023-04-18T16:07:20.830Z,1.20
2023-04-18T16:09:47.742Z,1.15
2023-04-18T16:12:14.586Z,1.00
2023-04-18T16:14:41.513Z,1.30
2023-04-18T16:17:08.321Z,1.60
2023-04-18T16:19:38.432Z,1.38
2023-04-18T16:22:07.318Z,1.13
2023-04-18T16:24:34.247Z,1.40
2023-04-18T16:27:01.179Z,1.60
2023-04-18T16:29:27.981Z,1.23
2023-04-18T16:31:54.980Z,1.02
2023-04-18T16:34:21.873Z,1.10
2023-04-18T16:36:50.799Z,1.55
2023-04-18T16:39:18.822Z,0.80
2023-04-18T16:41:45.670Z,1.15
2023-04-18T16:44:12.639Z,1.33
2023-04-18T16:46:39.626Z,1.00
2023-04-18T16:49:06.459Z,1.55
2023-04-18T16:51:35.270Z,1.63
2023-04-18T16:54:02.245Z,1.42
2023-04-18T16:56:29.386Z,0.90
2023-04-18T16:58:56.366Z,0.75
2023-04-18T17:01:23.237Z,1.20
2023-04-18T17:03:50.190Z,0.70
2023-04-18T17:06:19.805Z,2.28
2023-04-18T17:08:46.737Z,1.35
2023-04-18T17:11:13.926Z,1.35
2023-04-18T17:13:40.728Z,1.27
2023-04-18T17:16:07.720Z,0.90
2023-04-18T17:18:34.492Z,1.00
2023-04-18T17:21:01.356Z,0.65
2023-04-18T17:23:29.203Z,1.50
2023-04-18T17:25:56.788Z,0.75
2023-04-18T17:28:23.830Z,1.75
2023-04-18T17:30:50.924Z,1.17
2023-04-18T17:33:17.735Z,1.52
2023-04-18T17:35:44.493Z,1.05
2023-04-18T17:38:11.648Z,1.30
2023-04-18T17:40:39.766Z,2.78
2023-04-18T17:43:06.610Z,1.17
2023-04-18T17:45:33.442Z,1.60
2023-04-18T17:48:02.378Z,0.85
2023-04-18T17:50:29.496Z,1.38
2023-04-18T17:52:56.511Z,1.60
2023-04-18T17:55:26.300Z,1.23
2023-04-18T17:57:53.100Z,1.40
2023-04-18T18:00:20.082Z,1.10
2023-04-18T18:02:47.138Z,0.75
2023-04-18T18:05:14.039Z,0.63
2023-04-18T18:07:43.340Z,1.33
2023-04-18T18:10:11.709Z,1.17
2023-04-18T18:12:39.996Z,0.90
2023-04-18T18:15:10.193Z,1.50
2023-04-18T18:17:37.054Z,1.23
2023-04-18T18:20:10.645Z,1.23
2023-04-18T18:22:37.488Z,1.20
2023-04-18T18:25:05.483Z,1.48
2023-04-18T18:27:32.346Z,1.65
2023-04-18T18:29:59.196Z,1.58
2023-04-18T18:32:27.110Z,1.17
2023-04-18T18:34:53.952Z,1.23
2023-04-18T18:37:23.276Z,1.10
2023-04-18T18:39:50.136Z,1.10
2023-04-18T18:42:16.889Z,0.85
2023-04-18T18:44:43.682Z,0.88
2023-04-18T18:47:10.536Z,1.05
2023-04-18T18:49:37.342Z,1.95
2023-04-18T18:52:05.534Z,1.20
2023-04-18T18:54:32.382Z,1.10
2023-04-18T18:56:59.654Z,1.05
2023-04-18T18:59:26.470Z,1.30
2023-04-18T19:01:53.325Z,1.00
2023-04-18T19:04:20.440Z,1.27
2023-04-18T19:06:47.384Z,1.10
2023-04-18T19:09:14.562Z,1.05
2023-04-18T19:11:41.670Z,0.88
2023-04-18T19:14:08.488Z,1.42
2023-04-18T19:16:36.147Z,0.88
2023-04-18T19:19:03.002Z,0.90
2023-04-18T19:21:30.125Z,1.10
2023-04-18T19:23:57.015Z,0.90
2023-04-18T19:26:23.826Z,0.82
2023-04-18T19:28:50.732Z,0.80
2023-04-18T19:31:17.594Z,0.80
2023-04-18T19:33:44.376Z,0.60
2023-04-18T19:36:11.164Z,0.93
2023-04-18T19:38:37.988Z,1.23
2023-04-18T19:41:04.813Z,0.70
2023-04-18T19:43:31.556Z,0.65
2023-04-18T19:45:59.221Z,0.95
2023-04-18T19:48:26.078Z,1.10
2023-04-18T19:50:52.883Z,0.95
2023-04-18T19:53:20.606Z,1.00
2023-04-18T19:55:47.490Z,0.63
2023-04-18T19:58:32.676Z,0.82
2023-04-18T20:00:59.454Z,0.65
2023-04-18T20:03:26.490Z,1.00
2023-04-18T20:05:53.545Z,0.73
2023-04-18T20:08:20.521Z,0.90
2023-04-18T20:10:47.383Z,0.90
2023-04-18T20:13:14.171Z,0.60
2023-04-18T20:15:41.111Z,0.90
2023-04-18T20:18:08.148Z,1.20
2023-04-18T20:20:35.814Z,1.35
2023-04-18T20:23:03.480Z,1.17
2023-04-18T20:25:30.431Z,1.33
2023-04-18T20:27:57.251Z,1.35
2023-04-18T20:30:24.434Z,1.60
2023-04-18T20:32:51.504Z,1.75
2023-04-18T20:35:19.964Z,1.85
2023-04-18T20:37:46.793Z,1.40
2023-04-18T20:40:13.620Z,1.75
2023-04-18T20:42:40.427Z,1.70
2023-04-18T20:45:11.266Z,1.65
2023-04-18T20:47:39.398Z,1.80
2023-04-18T20:50:06.750Z,1.40
2023-04-18T20:52:33.510Z,1.52
2023-04-18T20:55:00.627Z,1.67
2023-04-18T20:57:27.510Z,1.40
2023-04-18T20:59:54.274Z,1.45
2023-04-18T21:02:21.174Z,1.65
2023-04-18T21:04:48.965Z,1.45
2023-04-18T21:07:15.934Z,1.35
2023-04-18T21:09:42.712Z,1.50
2023-04-18T21:12:09.505Z,1.20
2023-04-18T21:14:36.357Z,1.48
2023-04-18T21:17:03.176Z,1.55
2023-04-18T21:19:29.945Z,1.17
2023-04-18T21:21:56.771Z,0.95
2023-04-18T21:24:23.636Z,0.80
2023-04-18T21:26:50.456Z,1.05
2023-04-18T21:29:17.284Z,1.67
2023-04-18T21:31:44.076Z,0.80
2023-04-18T21:34:11.423Z,0.90
2023-04-18T21:36:40.208Z,1.00
2023-04-18T21:39:07.090Z,0.73
2023-04-18T21:41:33.852Z,0.63
2023-04-18T21:44:00.612Z,1.05
2023-04-18T21:46:27.478Z,0.60
2023-04-18T21:48:54.261Z,0.60
2023-04-18T21:51:21.125Z,0.70
2023-04-18T21:53:47.830Z,0.52
2023-04-18T21:56:14.690Z,0.80
2023-04-18T21:58:41.488Z,0.80
2023-04-18T22:03:53.050Z,0.50
2023-04-18T22:06:20.928Z,0.50
2023-04-18T22:08:48.288Z,0.57
2023-04-18T22:11:15.837Z,0.70
2023-04-18T22:13:44.796Z,0.60
2023-04-18T22:16:12.009Z,0.50
2023-04-18T22:18:38.795Z,0.38
2023-04-18T22:21:06.237Z,1.25
2023-04-18T22:23:33.012Z,0.90
2023-04-18T22:25:59.798Z,1.30
2023-04-18T22:28:28.149Z,0.80
2023-04-18T22:30:54.992Z,0.80
2023-04-18T22:33:21.884Z,1.00
2023-04-18T22:35:48.799Z,1.33
2023-04-18T22:38:15.961Z,1.33
2023-04-18T22:40:42.787Z,1.50
2023-04-18T22:43:09.658Z,0.93
2023-04-18T22:45:36.421Z,1.48
2023-04-18T22:48:03.312Z,1.25
2023-04-18T22:50:30.398Z,1.20
2023-04-18T22:52:57.603Z,0.90
2023-04-18T22:55:24.484Z,1.05
2023-04-18T22:57:51.270Z,0.73
2023-04-18T23:00:18.196Z,0.50
2023-04-18T23:02:45.189Z,0.88
2023-04-18T23:05:12.202Z,1.08
2023-04-18T23:07:38.948Z,0.73
2023-04-18T23:10:06.594Z,0.70
2023-04-18T23:12:33.540Z,0.50
2023-04-18T23:15:00.327Z,0.60
2023-04-18T23:17:27.157Z,0.77
2023-04-18T23:19:54.059Z,0.65
2023-04-18T23:22:21.468Z,1.25
2023-04-18T23:24:48.215Z,0.75
2023-04-18T23:27:15.302Z,1.40
2023-04-18T23:29:42.222Z,3.55
2023-04-18T23:32:09.075Z,3.10
2023-04-18T23:34:35.902Z,3.53
2023-04-18T23:37:02.792Z,1.73
2023-04-18T23:39:29.610Z,0.80
2023-04-18T23:41:56.404Z,3.30
2023-04-18T23:44:23.296Z,3.10
2023-04-18T23:46:50.209Z,2.88
2023-04-18T23:49:17.098Z,2.20
2023-04-18T23:51:43.866Z,1.70
2023-04-18T23:54:11.341Z,1.70
2023-04-18T23:56:38.592Z,2.13
2023-04-18T23:59:05.415Z,1.45
